createdAt,value
2023-04-27T00:01:42.648Z,6.97
2023-04-27T00:04:09.863Z,7.47
2023-04-27T00:06:36.953Z,6.27
2023-04-27T00:09:04.650Z,6.00
2023-04-27T00:11:31.762Z,6.20
2023-04-27T00:13:58.609Z,8.17
2023-04-27T00:16:25.805Z,6.13
2023-04-27T00:18:52.700Z,7.97
2023-04-27T00:21:19.381Z,7.30
2023-04-27T00:23:46.282Z,6.20
2023-04-27T00:26:13.032Z,8.73
2023-04-27T00:28:39.798Z,6.83
2023-04-27T00:31:06.861Z,5.80
2023-04-27T00:33:33.525Z,5.83
2023-04-27T00:36:04.409Z,6.07
2023-04-27T00:38:31.227Z,9.50
2023-04-27T00:41:05.719Z,10.50
2023-04-27T00:43:33.346Z,17.40
2023-04-27T00:46:01.125Z,13.23
2023-04-27T00:48:28.350Z,9.13
2023-04-27T00:50:55.395Z,7.50
2023-04-27T00:53:23.189Z,6.57
2023-04-27T00:55:49.857Z,6.03
2023-04-27T00:58:16.806Z,6.20
2023-04-27T01:00:43.951Z,6.87
2023-04-27T01:03:10.940Z,7.30
2023-04-27T01:05:38.366Z,6.90
2023-04-27T01:08:05.700Z,6.57
2023-04-27T01:10:32.451Z,6.53
2023-04-27T01:12:59.362Z,10.13
2023-04-27T01:15:26.203Z,12.93
2023-04-27T01:18:00.818Z,10.83
2023-04-27T01:20:30.800Z,11.70
2023-04-27T01:22:58.646Z,10.57
2023-04-27T01:25:26.389Z,9.20
2023-04-27T01:27:54.394Z,8.97
2023-04-27T01:30:22.755Z,7.33
2023-04-27T01:32:50.488Z,7.30
2023-04-27T01:35:17.495Z,7.70
2023-04-27T01:37:44.252Z,7.50
2023-04-27T01:40:13.272Z,7.33
2023-04-27T01:42:40.062Z,6.57
2023-04-27T01:45:07.383Z,6.20
2023-04-27T01:47:34.098Z,6.07
2023-04-27T01:50:00.962Z,6.83
2023-04-27T01:52:27.712Z,6.17
2023-04-27T01:54:54.476Z,5.53
2023-04-27T01:57:21.410Z,4.70
2023-04-27T01:59:48.116Z,5.00
2023-04-27T02:02:14.917Z,5.37
2023-04-27T02:04:43.653Z,5.13
2023-04-27T02:07:10.615Z,5.30
2023-04-27T02:09:37.737Z,4.80
2023-04-27T02:12:04.567Z,4.80
2023-04-27T02:14:31.836Z,4.60
2023-04-27T02:16:58.712Z,5.30
2023-04-27T02:19:25.328Z,5.53
2023-04-27T02:21:52.711Z,5.70
2023-04-27T02:24:19.622Z,5.00
2023-04-27T02:26:46.445Z,5.50
2023-04-27T02:29:13.410Z,5.00
2023-04-27T02:31:41.177Z,4.53
2023-04-27T02:34:07.907Z,4.83
2023-04-27T02:36:34.547Z,4.83
2023-04-27T02:39:01.864Z,4.70
2023-04-27T02:41:32.094Z,5.13
2023-04-27T02:43:58.765Z,4.63
2023-04-27T02:46:25.788Z,5.03
2023-04-27T02:48:52.428Z,4.30
2023-04-27T02:51:19.046Z,5.03
2023-04-27T02:53:45.977Z,4.40
2023-04-27T02:56:12.656Z,4.80
2023-04-27T02:58:39.375Z,4.63
2023-04-27T03:01:06.082Z,5.17
2023-04-27T03:03:32.866Z,4.50
2023-04-27T03:05:59.723Z,4.50
2023-04-27T03:08:26.629Z,4.53
2023-04-27T03:10:53.267Z,4.37
2023-04-27T03:13:19.894Z,5.30
2023-04-27T03:15:46.753Z,5.47
2023-04-27T03:18:13.389Z,5.30
2023-04-27T03:20:40.028Z,5.33
2023-04-27T03:23:07.232Z,4.40
2023-04-27T03:25:33.951Z,4.90
2023-04-27T03:28:00.804Z,5.20
2023-04-27T03:30:27.626Z,4.70
2023-04-27T03:32:54.823Z,4.37
2023-04-27T03:35:21.693Z,4.67
2023-04-27T03:37:48.471Z,4.57
2023-04-27T03:40:15.480Z,4.50
2023-04-27T03:42:42.220Z,4.73
2023-04-27T03:45:10.622Z,4.63
2023-04-27T03:47:37.312Z,4.47
2023-04-27T03:50:04.489Z,5.57
2023-04-27T03:52:31.332Z,5.20
2023-04-27T03:54:58.127Z,5.33
2023-04-27T03:57:24.871Z,5.13
2023-04-27T03:59:52.234Z,5.43
2023-04-27T04:02:19.065Z,4.77
2023-04-27T04:04:46.059Z,4.90
2023-04-27T04:07:13.014Z,4.47
2023-04-27T04:09:39.744Z,5.07
2023-04-27T04:12:06.692Z,5.03
2023-04-27T04:14:33.574Z,4.30
2023-04-27T04:17:00.233Z,4.10
2023-04-27T04:19:27.019Z,3.40
2023-04-27T04:21:54.950Z,3.17
2023-04-27T04:24:21.856Z,3.87
2023-04-27T04:26:48.764Z,2.93
2023-04-27T04:29:15.987Z,2.73
2023-04-27T04:31:42.981Z,3.20
2023-04-27T04:34:10.264Z,2.80
2023-04-27T04:36:37.020Z,3.33
2023-04-27T04:39:05.503Z,3.13
2023-04-27T04:41:32.655Z,2.80
2023-04-27T04:43:59.845Z,3.10
2023-04-27T04:46:26.638Z,3.70
2023-04-27T04:48:54.875Z,6.87
2023-04-27T04:51:21.855Z,12.10
2023-04-27T04:53:48.558Z,21.53
2023-04-27T04:56:15.209Z,19.93
2023-04-27T04:58:42.374Z,12.07
2023-04-27T05:01:09.175Z,5.03
2023-04-27T05:03:36.146Z,4.00
2023-04-27T05:06:03.057Z,3.93
2023-04-27T05:08:29.737Z,3.77
2023-04-27T05:10:56.582Z,3.77
2023-04-27T05:13:25.010Z,3.73
2023-04-27T05:15:52.403Z,5.60
2023-04-27T05:18:19.772Z,5.43
2023-04-27T05:20:46.787Z,5.40
2023-04-27T05:23:13.503Z,4.33
2023-04-27T05:25:43.228Z,4.23
2023-04-27T05:28:10.841Z,3.60
2023-04-27T05:30:37.725Z,3.70
2023-04-27T05:33:05.466Z,3.87
2023-04-27T05:35:32.941Z,3.60
2023-04-27T05:37:59.897Z,3.53
2023-04-27T05:40:26.766Z,3.67
2023-04-27T05:42:53.500Z,3.40
2023-04-27T05:45:23.420Z,4.20
2023-04-27T05:47:50.256Z,3.95
2023-04-27T05:50:16.963Z,4.63
2023-04-27T05:52:43.661Z,4.53
2023-04-27T05:55:11.184Z,3.63
2023-04-27T05:57:39.760Z,3.37
2023-04-27T06:00:11.164Z,3.30
2023-04-27T06:02:38.140Z,3.40
2023-04-27T06:05:05.245Z,3.37
2023-04-27T06:07:32.097Z,3.50
2023-04-27T06:09:58.731Z,3.00
2023-04-27T06:12:25.464Z,3.00
2023-04-27T06:14:52.117Z,2.90
2023-04-27T06:17:18.801Z,3.33
2023-04-27T06:19:46.359Z,4.13
2023-04-27T06:22:13.206Z,3.60
2023-04-27T06:24:39.886Z,3.40
2023-04-27T06:27:06.792Z,3.20
2023-04-27T06:29:33.502Z,3.50
2023-04-27T06:32:00.386Z,4.80
2023-04-27T06:34:27.440Z,3.97
2023-04-27T06:36:54.192Z,3.70
2023-04-27T06:39:21.597Z,3.57
2023-04-27T06:41:48.434Z,3.70
2023-04-27T06:44:15.166Z,3.67
2023-04-27T06:46:42.013Z,3.63
2023-04-27T06:49:10.834Z,3.30
2023-04-27T06:51:37.713Z,3.80
2023-04-27T06:54:04.767Z,3.10
2023-04-27T06:56:31.856Z,3.10
2023-04-27T06:58:58.760Z,3.33
2023-04-27T07:01:25.681Z,3.23
2023-04-27T07:03:52.669Z,3.10
2023-04-27T07:06:19.747Z,3.20
2023-04-27T07:08:46.390Z,3.03
2023-04-27T07:11:13.641Z,3.33
2023-04-27T07:13:40.394Z,3.10
2023-04-27T07:16:07.542Z,2.73
2023-04-27T07:18:34.451Z,3.00
2023-04-27T07:21:02.427Z,2.90
2023-04-27T07:23:29.146Z,3.50
2023-04-27T07:25:55.978Z,3.33
2023-04-27T07:28:22.666Z,3.00
2023-04-27T07:30:49.499Z,2.90
2023-04-27T07:33:16.302Z,3.10
2023-04-27T07:35:43.067Z,2.57
2023-04-27T07:38:09.758Z,2.83
2023-04-27T07:40:37.038Z,2.50
2023-04-27T07:43:05.719Z,2.60
2023-04-27T07:45:32.668Z,2.00
2023-04-27T07:48:02.283Z,2.03
2023-04-27T07:50:32.138Z,2.17
2023-04-27T07:52:59.383Z,2.17
2023-04-27T07:55:27.200Z,2.23
2023-04-27T07:57:54.854Z,2.37
2023-04-27T08:00:22.577Z,2.87
2023-04-27T08:02:51.218Z,2.43
2023-04-27T08:05:18.347Z,2.47
2023-04-27T08:07:47.044Z,2.00
2023-04-27T08:10:15.201Z,2.30
2023-04-27T08:12:42.070Z,1.90
2023-04-27T08:15:09.389Z,1.53
2023-04-27T08:17:37.461Z,1.90
2023-04-27T08:20:04.715Z,1.83
2023-04-27T08:22:31.734Z,1.93
2023-04-27T08:24:58.431Z,2.30
2023-04-27T08:27:25.207Z,2.00
2023-04-27T08:29:51.889Z,2.10
2023-04-27T08:32:18.532Z,2.13
2023-04-27T08:34:46.693Z,1.90
2023-04-27T08:37:13.938Z,2.20
2023-04-27T08:39:40.895Z,2.67
2023-04-27T08:42:12.361Z,2.27
2023-04-27T08:44:41.011Z,2.20
2023-04-27T08:47:09.009Z,2.30
2023-04-27T08:49:38.637Z,2.10
2023-04-27T08:52:12.343Z,2.33
2023-04-27T08:54:39.184Z,3.40
2023-04-27T08:57:13.575Z,3.07
2023-04-27T08:59:41.100Z,2.50
2023-04-27T09:02:19.129Z,2.10
2023-04-27T09:04:46.268Z,2.27
2023-04-27T09:07:16.669Z,2.10
2023-04-27T09:09:44.793Z,2.30
2023-04-27T09:12:19.294Z,1.97
2023-04-27T09:15:06.655Z,2.43
2023-04-27T09:17:34.112Z,2.10
2023-04-27T09:20:13.563Z,2.30
2023-04-27T09:22:48.726Z,2.30
2023-04-27T09:25:25.484Z,2.03
2023-04-27T09:27:52.378Z,2.20
2023-04-27T09:30:19.743Z,2.00
2023-04-27T09:33:01.831Z,2.00
2023-04-27T09:35:31.691Z,2.20
2023-04-27T09:37:59.252Z,2.55
2023-04-27T09:40:29.909Z,2.57
2023-04-27T09:42:58.956Z,2.00
2023-04-27T09:45:26.181Z,1.90
2023-04-27T09:47:53.286Z,1.80
2023-04-27T09:50:20.417Z,2.00
2023-04-27T09:52:47.252Z,2.00
2023-04-27T09:55:21.297Z,2.07
2023-04-27T09:57:52.354Z,2.00
2023-04-27T10:00:33.570Z,2.07
2023-04-27T10:03:33.130Z,2.00
2023-04-27T10:06:42.169Z,2.00
2023-04-27T10:09:10.487Z,1.80
2023-04-27T10:11:43.832Z,2.10
2023-04-27T10:14:17.541Z,1.67
2023-04-27T10:16:51.592Z,1.80
2023-04-27T10:19:18.992Z,1.90
2023-04-27T10:22:05.708Z,2.13
2023-04-27T10:24:40.981Z,1.90
2023-04-27T10:27:10.163Z,2.03
2023-04-27T10:29:44.776Z,1.70
2023-04-27T10:32:24.398Z,2.23
2023-04-27T10:34:54.003Z,1.73
2023-04-27T10:37:25.719Z,2.17
2023-04-27T10:42:30.752Z,2.30
2023-04-27T10:44:59.284Z,2.10
2023-04-27T10:47:37.714Z,2.10
2023-04-27T10:50:11.525Z,1.90
2023-04-27T10:52:46.830Z,2.20
2023-04-27T10:55:16.039Z,2.17
2023-04-27T10:57:50.544Z,2.00
2023-04-27T11:00:33.782Z,2.30
2023-04-27T11:03:30.993Z,2.10
2023-04-27T11:06:04.286Z,2.00
2023-04-27T11:08:33.217Z,1.90
2023-04-27T11:11:00.136Z,2.00
2023-04-27T11:13:28.497Z,2.03
2023-04-27T11:15:57.759Z,1.80
2023-04-27T11:18:26.813Z,2.10
2023-04-27T11:21:18.960Z,1.90
2023-04-27T11:23:45.633Z,1.90
2023-04-27T11:26:18.375Z,1.80
2023-04-27T11:28:58.108Z,2.10
2023-04-27T11:31:25.573Z,2.20
2023-04-27T11:33:53.542Z,1.77
2023-04-27T11:36:23.073Z,1.80
2023-04-27T11:38:49.998Z,1.93
2023-04-27T11:41:16.742Z,1.90
2023-04-27T11:43:49.868Z,1.80
2023-04-27T11:46:21.228Z,1.70
2023-04-27T11:48:48.156Z,1.77
2023-04-27T11:51:14.846Z,1.50
2023-04-27T11:53:42.806Z,1.60
2023-04-27T11:56:11.343Z,1.80
2023-04-27T11:58:39.439Z,1.73
2023-04-27T12:01:07.269Z,1.93
2023-04-27T12:03:34.643Z,1.73
2023-04-27T12:08:31.908Z,1.90
2023-04-27T12:10:58.774Z,2.30
2023-04-27T12:13:29.820Z,2.10
2023-04-27T12:15:58.460Z,2.00
2023-04-27T12:18:26.393Z,1.80
2023-04-27T12:20:53.182Z,1.87
2023-04-27T12:23:19.807Z,2.00
2023-04-27T12:25:46.573Z,2.00
2023-04-27T12:28:19.207Z,2.03
2023-04-27T12:30:46.264Z,2.33
2023-04-27T12:33:13.022Z,2.00
2023-04-27T12:35:39.730Z,2.20
2023-04-27T12:38:06.393Z,2.10
2023-04-27T12:40:33.584Z,2.40
2023-04-27T12:43:01.302Z,2.00
2023-04-27T12:45:28.255Z,2.13
2023-04-27T12:48:03.159Z,1.97
2023-04-27T12:50:32.500Z,1.97
2023-04-27T12:53:00.085Z,1.90
2023-04-27T12:55:33.774Z,2.10
2023-04-27T12:58:02.427Z,1.90
2023-04-27T13:00:30.059Z,2.07
2023-04-27T13:02:57.572Z,1.97
2023-04-27T13:05:26.207Z,2.10
2023-04-27T13:07:53.168Z,2.40
2023-04-27T13:10:20.058Z,2.77
2023-04-27T13:12:47.176Z,3.17
2023-04-27T13:15:13.889Z,1.90
2023-04-27T13:17:42.999Z,2.00
2023-04-27T13:20:11.373Z,2.08
2023-04-27T13:22:40.874Z,2.20
2023-04-27T13:25:09.833Z,2.20
2023-04-27T13:27:37.206Z,2.40
2023-04-27T13:30:05.447Z,1.93
2023-04-27T13:32:32.340Z,2.30
2023-04-27T13:34:59.788Z,2.00
2023-04-27T13:37:27.480Z,2.00
2023-04-27T13:39:54.165Z,2.20
2023-04-27T13:42:21.734Z,2.10
2023-04-27T13:44:48.459Z,2.00
2023-04-27T13:47:17.726Z,2.20
2023-04-27T13:49:44.424Z,2.30
2023-04-27T13:52:11.177Z,2.07
2023-04-27T13:54:37.954Z,2.17
2023-04-27T13:57:04.873Z,2.30
2023-04-27T13:59:31.497Z,2.20
2023-04-27T14:01:58.184Z,2.30
2023-04-27T14:04:25.099Z,2.30
2023-04-27T14:06:51.950Z,2.07
2023-04-27T14:09:19.004Z,2.10
2023-04-27T14:11:55.674Z,2.30
2023-04-27T14:14:23.983Z,2.30
2023-04-27T14:16:53.627Z,2.07
2023-04-27T14:19:22.961Z,2.38
2023-04-27T14:21:50.284Z,2.33
2023-04-27T14:24:16.956Z,2.40
2023-04-27T14:26:44.461Z,2.60
2023-04-27T14:29:12.024Z,2.37
2023-04-27T14:31:39.500Z,2.30
2023-04-27T14:34:07.194Z,2.50
2023-04-27T14:36:34.934Z,2.43
2023-04-27T14:39:01.681Z,2.43
2023-04-27T14:41:28.659Z,2.50
2023-04-27T14:43:55.520Z,2.50
2023-04-27T14:46:22.545Z,2.33
2023-04-27T14:48:50.070Z,2.40
2023-04-27T14:51:17.194Z,2.37
2023-04-27T14:53:44.535Z,2.23
2023-04-27T14:56:11.573Z,2.23
2023-04-27T14:58:38.841Z,2.30
2023-04-27T15:01:06.236Z,1.87
2023-04-27T15:03:33.504Z,2.00
2023-04-27T15:06:01.542Z,3.23
2023-04-27T15:08:30.228Z,2.30
2023-04-27T15:11:00.200Z,2.30
2023-04-27T15:13:27.946Z,1.93
2023-04-27T15:15:59.348Z,2.20
2023-04-27T15:18:26.207Z,1.80
2023-04-27T15:21:04.907Z,2.20
2023-04-27T15:23:31.689Z,1.70
2023-04-27T15:25:58.696Z,2.30
2023-04-27T15:28:25.710Z,2.00
2023-04-27T15:30:53.602Z,1.97
2023-04-27T15:33:20.597Z,2.00
2023-04-27T15:35:47.369Z,2.17
2023-04-27T15:38:15.134Z,1.50
2023-04-27T15:40:42.044Z,2.00
2023-04-27T15:43:27.299Z,2.03
2023-04-27T15:45:54.096Z,2.43
2023-04-27T15:48:20.827Z,2.67
2023-04-27T15:50:48.594Z,2.00
2023-04-27T15:53:15.426Z,2.10
2023-04-27T15:55:42.486Z,1.80
2023-04-27T15:58:09.159Z,2.00
2023-04-27T16:00:36.015Z,2.30
2023-04-27T16:03:05.448Z,1.90
2023-04-27T16:08:00.896Z,2.30
2023-04-27T16:10:28.070Z,2.20
2023-04-27T16:12:54.787Z,2.37
2023-04-27T16:15:21.496Z,2.90
2023-04-27T16:17:48.234Z,2.20
2023-04-27T16:22:53.302Z,2.20
2023-04-27T16:25:32.478Z,2.10
2023-04-27T16:28:02.255Z,2.30
2023-04-27T16:30:29.074Z,2.10
2023-04-27T16:32:57.017Z,2.43
2023-04-27T16:35:25.971Z,2.20
2023-04-27T16:37:54.250Z,2.07
2023-04-27T16:40:21.161Z,1.93
2023-04-27T16:42:52.182Z,6.47
2023-04-27T16:45:19.093Z,3.63
2023-04-27T16:47:46.020Z,3.70
2023-04-27T16:50:13.069Z,4.37
2023-04-27T16:52:39.890Z,4.00
2023-04-27T16:55:07.037Z,2.77
2023-04-27T16:57:33.909Z,3.00
2023-04-27T17:00:01.821Z,2.90
2023-04-27T17:02:29.735Z,3.23
2023-04-27T17:04:56.699Z,2.73
2023-04-27T17:07:28.820Z,2.30
2023-04-27T17:09:56.418Z,2.73
2023-04-27T17:12:24.263Z,2.47
2023-04-27T17:14:51.051Z,2.57
2023-04-27T17:17:21.460Z,2.40
2023-04-27T17:19:50.842Z,3.45
2023-04-27T17:22:18.455Z,4.73
2023-04-27T17:24:45.224Z,3.10
2023-04-27T17:27:13.229Z,2.97
2023-04-27T17:29:40.198Z,6.83
2023-04-27T17:32:12.148Z,10.57
2023-04-27T17:34:40.424Z,9.00
2023-04-27T17:37:09.391Z,7.00
2023-04-27T17:39:42.017Z,7.57
2023-04-27T17:42:12.687Z,8.30
2023-04-27T17:44:41.722Z,5.00
2023-04-27T17:47:17.472Z,7.63
2023-04-27T17:49:45.267Z,6.20
2023-04-27T17:52:12.148Z,9.70
2023-04-27T17:54:41.034Z,4.90
2023-04-27T17:57:08.290Z,3.90
2023-04-27T17:59:37.013Z,2.83
2023-04-27T18:02:03.813Z,2.07
2023-04-27T18:04:32.703Z,2.40
2023-04-27T18:07:00.880Z,2.00
2023-04-27T18:09:29.431Z,2.30
2023-04-27T18:11:57.428Z,2.40
2023-04-27T18:14:24.304Z,2.43
2023-04-27T18:16:51.234Z,2.43
2023-04-27T18:19:18.961Z,3.63
2023-04-27T18:21:45.566Z,5.00
2023-04-27T18:24:12.334Z,5.53
2023-04-27T18:26:39.150Z,3.70
2023-04-27T18:29:05.924Z,2.90
2023-04-27T18:31:32.787Z,2.63
2023-04-27T18:34:00.649Z,3.13
2023-04-27T18:36:27.980Z,3.00
2023-04-27T18:38:56.035Z,4.23
2023-04-27T18:41:23.378Z,6.53
2023-04-27T18:43:51.677Z,14.50
2023-04-27T18:46:18.941Z,25.20
2023-04-27T18:48:46.064Z,25.13
2023-04-27T18:51:12.740Z,28.60
2023-04-27T18:53:39.550Z,24.07
2023-04-27T18:56:07.181Z,13.83
2023-04-27T18:58:35.201Z,8.53
2023-04-27T19:01:01.973Z,6.77
2023-04-27T19:03:29.535Z,4.43
2023-04-27T19:05:56.489Z,4.00
2023-04-27T19:08:23.258Z,3.27
2023-04-27T19:10:51.555Z,3.30
2023-04-27T19:13:18.310Z,3.07
2023-04-27T19:15:48.298Z,3.20
2023-04-27T19:18:15.524Z,4.25
2023-04-27T19:20:45.312Z,4.50
2023-04-27T19:23:13.934Z,3.97
2023-04-27T19:25:42.105Z,4.30
2023-04-27T19:28:09.014Z,4.13
2023-04-27T19:30:36.435Z,3.93
2023-04-27T19:33:04.077Z,3.63
2023-04-27T19:35:31.534Z,4.03
2023-04-27T19:37:58.452Z,4.00
2023-04-27T19:40:25.380Z,3.93
2023-04-27T19:42:52.766Z,3.73
2023-04-27T19:45:21.240Z,3.67
2023-04-27T19:47:49.672Z,4.20
2023-04-27T19:50:17.686Z,7.00
2023-04-27T19:52:44.578Z,6.27
2023-04-27T19:55:11.658Z,5.27
2023-04-27T19:57:38.559Z,5.07
2023-04-27T20:00:07.349Z,4.57
2023-04-27T20:02:35.157Z,4.30
2023-04-27T20:05:02.701Z,3.80
2023-04-27T20:07:30.763Z,3.50
2023-04-27T20:09:57.827Z,3.93
2023-04-27T20:14:56.357Z,4.97
2023-04-27T20:17:25.924Z,5.43
2023-04-27T20:19:56.411Z,5.57
2023-04-27T20:22:24.059Z,6.05
2023-04-27T20:24:51.241Z,7.13
2023-04-27T20:27:18.115Z,8.30
2023-04-27T20:29:46.723Z,8.90
2023-04-27T20:32:13.688Z,5.27
2023-04-27T20:34:40.508Z,5.37
2023-04-27T20:37:07.840Z,4.50
2023-04-27T20:39:35.169Z,4.50
2023-04-27T20:42:03.966Z,4.00
2023-04-27T20:44:32.452Z,4.47
2023-04-27T20:46:59.285Z,3.90
2023-04-27T20:49:34.156Z,4.40
2023-04-27T20:52:02.010Z,4.00
2023-04-27T20:54:31.117Z,4.00
2023-04-27T20:56:58.088Z,4.00
2023-04-27T20:59:24.866Z,4.13
2023-04-27T21:01:51.626Z,4.47
2023-04-27T21:04:18.545Z,4.57
2023-04-27T21:06:45.644Z,4.00
2023-04-27T21:09:12.311Z,4.60
2023-04-27T21:11:38.973Z,4.10
2023-04-27T21:14:05.752Z,4.37
2023-04-27T21:16:32.523Z,4.10
2023-04-27T21:18:59.174Z,3.87
2023-04-27T21:21:26.656Z,4.00
2023-04-27T21:24:06.676Z,3.70
2023-04-27T21:26:34.888Z,4.23
2023-04-27T21:29:01.764Z,4.33
2023-04-27T21:31:28.592Z,4.10
2023-04-27T21:33:56.671Z,4.57
2023-04-27T21:36:23.640Z,4.97
2023-04-27T21:38:50.286Z,3.87
2023-04-27T21:41:17.582Z,3.87
2023-04-27T21:43:45.209Z,3.93
2023-04-27T21:46:11.962Z,3.43
2023-04-27T21:48:38.705Z,4.10
2023-04-27T21:51:05.678Z,3.80
2023-04-27T21:53:32.380Z,3.90
2023-04-27T21:56:02.196Z,4.03
2023-04-27T21:58:29.064Z,4.05
2023-04-27T22:00:55.767Z,4.10
2023-04-27T22:03:23.034Z,4.13
2023-04-27T22:05:50.461Z,5.00
2023-04-27T22:08:17.663Z,4.50
2023-04-27T22:10:44.959Z,4.37
2023-04-27T22:13:18.812Z,4.10
2023-04-27T22:15:46.732Z,4.10
2023-04-27T22:18:14.615Z,4.20
2023-04-27T22:20:42.652Z,4.40
2023-04-27T22:23:09.763Z,4.50
2023-04-27T22:25:36.747Z,4.33
2023-04-27T22:28:03.396Z,3.43
2023-04-27T22:30:31.177Z,4.13
2023-04-27T22:32:58.186Z,3.90
2023-04-27T22:35:27.676Z,4.73
2023-04-27T22:37:59.831Z,4.43
2023-04-27T22:40:26.789Z,4.47
2023-04-27T22:42:54.105Z,4.10
2023-04-27T22:45:21.553Z,4.23
2023-04-27T22:47:49.667Z,5.07
2023-04-27T22:50:16.796Z,4.23
2023-04-27T22:52:44.036Z,5.10
2023-04-27T22:55:12.047Z,4.60
2023-04-27T22:57:39.966Z,5.20
2023-04-27T23:00:11.841Z,5.53
2023-04-27T23:02:42.963Z,5.30
2023-04-27T23:05:11.130Z,5.53
2023-04-27T23:07:38.667Z,5.17
2023-04-27T23:10:06.161Z,5.30
2023-04-27T23:12:33.491Z,5.73
2023-04-27T23:15:01.638Z,5.40
2023-04-27T23:17:33.723Z,5.13
2023-04-27T23:20:01.780Z,5.70
2023-04-27T23:22:28.762Z,5.70
2023-04-27T23:24:55.661Z,6.10
2023-04-27T23:27:23.807Z,5.43
2023-04-27T23:29:52.007Z,5.77
2023-04-27T23:32:19.016Z,5.57
2023-04-27T23:34:46.160Z,5.50
2023-04-27T23:37:13.985Z,5.00
2023-04-27T23:39:40.849Z,5.67
2023-04-27T23:42:07.505Z,5.37
2023-04-27T23:44:34.129Z,4.97
2023-04-27T23:47:00.942Z,5.57
2023-04-27T23:49:27.639Z,5.13
2023-04-27T23:51:54.336Z,5.43
2023-04-27T23:54:21.274Z,5.70
2023-04-27T23:56:48.961Z,5.60
2023-04-27T23:59:15.604Z,5.23
